sensor_id;sensor_type;location;lat;lon;timestamp;temperature;humidity
53272;DHT22;39160;48.580;7.756;2022-11-15T00:03:46;11.80;99.90
53272;DHT22;39160;48.580;7.756;2022-11-15T00:08:37;11.80;99.90
53272;DHT22;39160;48.580;7.756;2022-11-15T00:13:28;11.80;99.90
53272;DHT22;39160;48.580;7.756;2022-11-15T00:18:19;11.90;99.90
53272;DHT22;39160;48.580;7.756;2022-11-15T00:23:10;11.80;99.90
53272;DHT22;39160;48.580;7.756;2022-11-15T00:28:01;11.90;99.90
53272;DHT22;39160;48.580;7.756;2022-11-15T00:32:52;11.90;99.90
53272;DHT22;39160;48.580;7.756;2022-11-15T00:37:42;11.90;99.90
53272;DHT22;39160;48.580;7.756;2022-11-15T00:42:33;11.90;99.90
53272;DHT22;39160;48.580;7.756;2022-11-15T00:47:24;11.90;99.90
53272;DHT22;39160;48.580;7.756;2022-11-15T00:52:14;11.90;99.90
53272;DHT22;39160;48.580;7.756;2022-11-15T00:57:05;11.90;99.90
53272;DHT22;39160;48.580;7.756;2022-11-15T01:01:55;12.00;99.90
53272;DHT22;39160;48.580;7.756;2022-11-15T01:06:46;12.00;99.90
53272;DHT22;39160;48.580;7.756;2022-11-15T01:11:37;11.90;99.90
53272;DHT22;39160;48.580;7.756;2022-11-15T01:16:28;11.90;99.90
53272;DHT22;39160;48.580;7.756;2022-11-15T01:21:19;11.90;99.90
53272;DHT22;39160;48.580;7.756;2022-11-15T01:26:12;11.90;99.90
53272;DHT22;39160;48.580;7.756;2022-11-15T01:31:06;11.90;99.90
53272;DHT22;39160;48.580;7.756;2022-11-15T01:35:56;11.90;99.90
53272;DHT22;39160;48.580;7.756;2022-11-15T01:40:47;11.90;99.90
53272;DHT22;39160;48.580;7.756;2022-11-15T01:45:38;11.90;99.90
53272;DHT22;39160;48.580;7.756;2022-11-15T01:50:31;12.00;99.90
53272;DHT22;39160;48.580;7.756;2022-11-15T01:55:24;11.90;99.90
53272;DHT22;39160;48.580;7.756;2022-11-15T02:00:16;11.90;99.90
53272;DHT22;39160;48.580;7.756;2022-11-15T02:05:07;12.00;99.90
53272;DHT22;39160;48.580;7.756;2022-11-15T02:10:08;12.00;99.90
53272;DHT22;39160;48.580;7.756;2022-11-15T02:14:59;12.00;99.90
53272;DHT22;39160;48.580;7.756;2022-11-15T02:31:02;12.10;99.90
53272;DHT22;39160;48.580;7.756;2022-11-15T02:36:02;12.10;99.90
53272;DHT22;39160;48.580;7.756;2022-11-15T02:41:09;12.10;99.90
53272;DHT22;39160;48.580;7.756;2022-11-15T02:46:13;12.10;99.90
53272;DHT22;39160;48.580;7.756;2022-11-15T02:51:05;12.10;99.90
53272;DHT22;39160;48.580;7.756;2022-11-15T02:55:56;12.00;99.90
53272;DHT22;39160;48.580;7.756;2022-11-15T03:11:25;12.10;99.90
53272;DHT22;39160;48.580;7.756;2022-11-15T03:21:33;12.10;99.90
53272;DHT22;39160;48.580;7.756;2022-11-15T03:26:25;12.10;99.90
53272;DHT22;39160;48.580;7.756;2022-11-15T03:31:18;12.00;99.90
53272;DHT22;39160;48.580;7.756;2022-11-15T03:36:29;12.10;99.90
53272;DHT22;39160;48.580;7.756;2022-11-15T03:46:36;12.00;99.90
53272;DHT22;39160;48.580;7.756;2022-11-15T03:51:29;12.00;99.90
53272;DHT22;39160;48.580;7.756;2022-11-15T03:56:20;12.00;99.90
53272;DHT22;39160;48.580;7.756;2022-11-15T04:01:10;12.10;99.90
53272;DHT22;39160;48.580;7.756;2022-11-15T04:06:01;12.00;99.90
53272;DHT22;39160;48.580;7.756;2022-11-15T04:10:51;11.90;99.90
53272;DHT22;39160;48.580;7.756;2022-11-15T04:15:42;11.90;99.90
53272;DHT22;39160;48.580;7.756;2022-11-15T04:20:33;11.90;99.90
53272;DHT22;39160;48.580;7.756;2022-11-15T04:25:42;11.90;99.90
53272;DHT22;39160;48.580;7.756;2022-11-15T04:30:34;11.90;99.90
53272;DHT22;39160;48.580;7.756;2022-11-15T04:35:24;12.00;99.90
53272;DHT22;39160;48.580;7.756;2022-11-15T04:40:15;12.00;99.90
53272;DHT22;39160;48.580;7.756;2022-11-15T04:45:06;12.00;99.90
53272;DHT22;39160;48.580;7.756;2022-11-15T04:49:57;11.90;99.90
53272;DHT22;39160;48.580;7.756;2022-11-15T04:54:47;12.00;99.90
53272;DHT22;39160;48.580;7.756;2022-11-15T04:59:38;12.00;99.90
53272;DHT22;39160;48.580;7.756;2022-11-15T05:04:29;11.90;99.90
53272;DHT22;39160;48.580;7.756;2022-11-15T05:09:20;11.90;99.90
53272;DHT22;39160;48.580;7.756;2022-11-15T05:14:11;11.90;99.90
53272;DHT22;39160;48.580;7.756;2022-11-15T05:19:02;11.90;99.90
53272;DHT22;39160;48.580;7.756;2022-11-15T05:23:52;11.90;99.90
53272;DHT22;39160;48.580;7.756;2022-11-15T05:28:43;12.00;99.90
53272;DHT22;39160;48.580;7.756;2022-11-15T05:33:35;12.00;99.90
53272;DHT22;39160;48.580;7.756;2022-11-15T05:38:28;12.10;99.90
53272;DHT22;39160;48.580;7.756;2022-11-15T05:43:18;12.10;99.90
53272;DHT22;39160;48.580;7.756;2022-11-15T05:48:10;12.10;99.90
53272;DHT22;39160;48.580;7.756;2022-11-15T05:53:01;12.10;99.90
53272;DHT22;39160;48.580;7.756;2022-11-15T05:57:52;12.10;99.90
53272;DHT22;39160;48.580;7.756;2022-11-15T06:02:43;12.00;99.90
53272;DHT22;39160;48.580;7.756;2022-11-15T06:07:33;12.00;99.90
53272;DHT22;39160;48.580;7.756;2022-11-15T06:12:24;12.00;99.90
53272;DHT22;39160;48.580;7.756;2022-11-15T06:17:15;12.00;99.90
53272;DHT22;39160;48.580;7.756;2022-11-15T06:22:05;12.00;99.90
53272;DHT22;39160;48.580;7.756;2022-11-15T06:26:56;12.00;99.90
53272;DHT22;39160;48.580;7.756;2022-11-15T06:31:47;12.00;99.90
53272;DHT22;39160;48.580;7.756;2022-11-15T06:36:38;11.90;99.90
53272;DHT22;39160;48.580;7.756;2022-11-15T06:41:29;11.90;99.90
53272;DHT22;39160;48.580;7.756;2022-11-15T06:46:19;11.90;99.90
53272;DHT22;39160;48.580;7.756;2022-11-15T06:51:10;11.90;99.90
53272;DHT22;39160;48.580;7.756;2022-11-15T06:56:02;11.90;99.90
53272;DHT22;39160;48.580;7.756;2022-11-15T07:00:53;12.00;99.90
53272;DHT22;39160;48.580;7.756;2022-11-15T07:05:52;12.00;99.90
53272;DHT22;39160;48.580;7.756;2022-11-15T07:10:43;12.00;99.90
53272;DHT22;39160;48.580;7.756;2022-11-15T07:15:34;12.00;99.90
53272;DHT22;39160;48.580;7.756;2022-11-15T07:20:25;12.00;99.90
53272;DHT22;39160;48.580;7.756;2022-11-15T07:25:15;12.00;99.90
53272;DHT22;39160;48.580;7.756;2022-11-15T07:30:06;12.10;99.90
53272;DHT22;39160;48.580;7.756;2022-11-15T07:34:57;12.10;99.90
53272;DHT22;39160;48.580;7.756;2022-11-15T07:39:48;12.20;99.90
53272;DHT22;39160;48.580;7.756;2022-11-15T07:44:38;12.20;99.90
53272;DHT22;39160;48.580;7.756;2022-11-15T07:49:29;12.20;99.90
53272;DHT22;39160;48.580;7.756;2022-11-15T07:54:20;12.30;99.90
53272;DHT22;39160;48.580;7.756;2022-11-15T07:59:10;12.30;99.90
53272;DHT22;39160;48.580;7.756;2022-11-15T08:04:01;12.30;99.90
53272;DHT22;39160;48.580;7.756;2022-11-15T08:08:51;12.30;99.90
53272;DHT22;39160;48.580;7.756;2022-11-15T08:13:42;12.30;99.90
53272;DHT22;39160;48.580;7.756;2022-11-15T08:18:33;12.30;99.90
53272;DHT22;39160;48.580;7.756;2022-11-15T08:23:23;12.40;99.90
53272;DHT22;39160;48.580;7.756;2022-11-15T08:28:16;12.40;99.90
53272;DHT22;39160;48.580;7.756;2022-11-15T08:33:10;12.40;99.90
53272;DHT22;39160;48.580;7.756;2022-11-15T08:38:01;12.40;99.90
53272;DHT22;39160;48.580;7.756;2022-11-15T08:42:52;12.60;99.90
53272;DHT22;39160;48.580;7.756;2022-11-15T08:47:43;12.60;99.90
53272;DHT22;39160;48.580;7.756;2022-11-15T08:52:33;12.70;99.90
53272;DHT22;39160;48.580;7.756;2022-11-15T08:57:24;12.70;99.90
53272;DHT22;39160;48.580;7.756;2022-11-15T09:02:15;12.80;99.90
53272;DHT22;39160;48.580;7.756;2022-11-15T09:07:06;12.80;99.90
53272;DHT22;39160;48.580;7.756;2022-11-15T09:11:57;12.80;99.90
53272;DHT22;39160;48.580;7.756;2022-11-15T09:16:47;12.90;99.90
53272;DHT22;39160;48.580;7.756;2022-11-15T09:21:41;12.90;99.90
53272;DHT22;39160;48.580;7.756;2022-11-15T09:26:32;12.90;99.90
53272;DHT22;39160;48.580;7.756;2022-11-15T09:31:22;13.00;99.90
53272;DHT22;39160;48.580;7.756;2022-11-15T09:36:13;13.00;99.90
53272;DHT22;39160;48.580;7.756;2022-11-15T09:46:35;13.00;99.90
53272;DHT22;39160;48.580;7.756;2022-11-15T09:51:46;13.00;99.90
53272;DHT22;39160;48.580;7.756;2022-11-15T09:56:41;13.10;99.90
53272;DHT22;39160;48.580;7.756;2022-11-15T10:06:30;12.90;99.90
53272;DHT22;39160;48.580;7.756;2022-11-15T10:11:28;13.00;99.90
53272;DHT22;39160;48.580;7.756;2022-11-15T10:21:24;13.10;99.90
53272;DHT22;39160;48.580;7.756;2022-11-15T10:26:17;13.20;99.90
53272;DHT22;39160;48.580;7.756;2022-11-15T10:31:27;13.30;99.90
53272;DHT22;39160;48.580;7.756;2022-11-15T10:36:23;13.40;99.90
53272;DHT22;39160;48.580;7.756;2022-11-15T10:41:37;13.50;99.90
53272;DHT22;39160;48.580;7.756;2022-11-15T10:46:28;13.60;99.90
53272;DHT22;39160;48.580;7.756;2022-11-15T10:51:27;13.80;99.90
53272;DHT22;39160;48.580;7.756;2022-11-15T10:56:21;13.80;99.90
53272;DHT22;39160;48.580;7.756;2022-11-15T11:01:15;13.90;99.90
53272;DHT22;39160;48.580;7.756;2022-11-15T11:06:11;14.00;99.90
53272;DHT22;39160;48.580;7.756;2022-11-15T11:11:04;14.00;99.90
53272;DHT22;39160;48.580;7.756;2022-11-15T11:16:08;14.00;99.90
53272;DHT22;39160;48.580;7.756;2022-11-15T11:21:08;13.90;99.90
53272;DHT22;39160;48.580;7.756;2022-11-15T11:36:54;14.10;99.90
53272;DHT22;39160;48.580;7.756;2022-11-15T11:41:59;14.00;99.90
53272;DHT22;39160;48.580;7.756;2022-11-15T11:52:07;14.20;99.90
53272;DHT22;39160;48.580;7.756;2022-11-15T11:57:00;14.30;99.90
53272;DHT22;39160;48.580;7.756;2022-11-15T12:01:52;14.30;99.90
53272;DHT22;39160;48.580;7.756;2022-11-15T12:07:19;14.30;99.90
53272;DHT22;39160;48.580;7.756;2022-11-15T12:17:28;14.50;99.90
53272;DHT22;39160;48.580;7.756;2022-11-15T12:32:33;14.50;99.90
53272;DHT22;39160;48.580;7.756;2022-11-15T12:37:48;14.50;99.90
53272;DHT22;39160;48.580;7.756;2022-11-15T12:42:42;14.60;99.90
53272;DHT22;39160;48.580;7.756;2022-11-15T12:47:33;14.50;99.90
53272;DHT22;39160;48.580;7.756;2022-11-15T12:52:23;14.50;99.90
53272;DHT22;39160;48.580;7.756;2022-11-15T13:22:10;14.30;99.90
53272;DHT22;39160;48.580;7.756;2022-11-15T13:27:21;14.30;99.90
53272;DHT22;39160;48.580;7.756;2022-11-15T13:32:13;14.30;99.90
53272;DHT22;39160;48.580;7.756;2022-11-15T13:42:17;14.30;99.90
53272;DHT22;39160;48.580;7.756;2022-11-15T13:47:16;14.30;99.90
53272;DHT22;39160;48.580;7.756;2022-11-15T13:52:12;14.30;99.90
53272;DHT22;39160;48.580;7.756;2022-11-15T13:57:14;14.30;99.90
53272;DHT22;39160;48.580;7.756;2022-11-15T14:02:18;14.40;99.90
53272;DHT22;39160;48.580;7.756;2022-11-15T14:07:21;14.30;99.90
53272;DHT22;39160;48.580;7.756;2022-11-15T14:12:50;14.20;99.90
53272;DHT22;39160;48.580;7.756;2022-11-15T14:17:41;14.10;99.90
53272;DHT22;39160;48.580;7.756;2022-11-15T14:22:31;14.10;99.90
53272;DHT22;39160;48.580;7.756;2022-11-15T14:27:27;14.10;99.90
53272;DHT22;39160;48.580;7.756;2022-11-15T14:32:27;14.10;99.90
53272;DHT22;39160;48.580;7.756;2022-11-15T14:37:24;14.20;99.90
53272;DHT22;39160;48.580;7.756;2022-11-15T14:42:15;14.10;99.90
53272;DHT22;39160;48.580;7.756;2022-11-15T14:47:06;14.20;99.90
53272;DHT22;39160;48.580;7.756;2022-11-15T14:51:57;14.10;99.90
53272;DHT22;39160;48.580;7.756;2022-11-15T14:56:48;14.20;99.90
53272;DHT22;39160;48.580;7.756;2022-11-15T15:01:38;14.20;99.90
53272;DHT22;39160;48.580;7.756;2022-11-15T15:06:29;14.10;99.90
53272;DHT22;39160;48.580;7.756;2022-11-15T15:11:24;14.10;99.90
53272;DHT22;39160;48.580;7.756;2022-11-15T15:16:19;14.00;99.90
53272;DHT22;39160;48.580;7.756;2022-11-15T15:21:23;14.00;99.90
53272;DHT22;39160;48.580;7.756;2022-11-15T15:26:14;13.90;99.90
53272;DHT22;39160;48.580;7.756;2022-11-15T15:31:05;13.80;99.90
53272;DHT22;39160;48.580;7.756;2022-11-15T15:35:56;13.80;99.90
53272;DHT22;39160;48.580;7.756;2022-11-15T15:40:46;13.80;99.90
53272;DHT22;39160;48.580;7.756;2022-11-15T15:45:39;13.80;99.90
53272;DHT22;39160;48.580;7.756;2022-11-15T15:50:33;13.70;99.90
53272;DHT22;39160;48.580;7.756;2022-11-15T15:55:24;13.70;99.90
53272;DHT22;39160;48.580;7.756;2022-11-15T16:00:16;13.70;99.90
53272;DHT22;39160;48.580;7.756;2022-11-15T16:05:08;13.70;99.90
53272;DHT22;39160;48.580;7.756;2022-11-15T16:09:59;13.70;99.90
53272;DHT22;39160;48.580;7.756;2022-11-15T16:14:53;13.70;99.90
53272;DHT22;39160;48.580;7.756;2022-11-15T16:19:44;13.70;99.90
53272;DHT22;39160;48.580;7.756;2022-11-15T16:24:35;13.70;99.90
53272;DHT22;39160;48.580;7.756;2022-11-15T16:29:26;13.70;99.90
53272;DHT22;39160;48.580;7.756;2022-11-15T16:34:16;13.70;99.90
53272;DHT22;39160;48.580;7.756;2022-11-15T16:39:11;13.70;99.90
53272;DHT22;39160;48.580;7.756;2022-11-15T16:44:03;13.70;99.90
53272;DHT22;39160;48.580;7.756;2022-11-15T16:48:54;13.60;99.90
53272;DHT22;39160;48.580;7.756;2022-11-15T16:53:45;13.60;99.90
53272;DHT22;39160;48.580;7.756;2022-11-15T16:58:36;13.70;99.90
53272;DHT22;39160;48.580;7.756;2022-11-15T17:03:27;13.70;99.90
53272;DHT22;39160;48.580;7.756;2022-11-15T17:08:18;13.70;99.90
53272;DHT22;39160;48.580;7.756;2022-11-15T17:13:11;13.70;99.90
53272;DHT22;39160;48.580;7.756;2022-11-15T17:18:03;13.70;99.90
53272;DHT22;39160;48.580;7.756;2022-11-15T17:22:55;13.70;99.90
53272;DHT22;39160;48.580;7.756;2022-11-15T17:27:45;13.70;99.90
53272;DHT22;39160;48.580;7.756;2022-11-15T17:32:36;13.60;99.90
53272;DHT22;39160;48.580;7.756;2022-11-15T17:37:27;13.60;99.90
53272;DHT22;39160;48.580;7.756;2022-11-15T17:42:18;13.60;99.90
53272;DHT22;39160;48.580;7.756;2022-11-15T17:47:09;13.60;99.90
53272;DHT22;39160;48.580;7.756;2022-11-15T17:51:59;13.60;99.90
53272;DHT22;39160;48.580;7.756;2022-11-15T17:56:50;13.60;99.90
53272;DHT22;39160;48.580;7.756;2022-11-15T18:01:40;13.70;99.90
53272;DHT22;39160;48.580;7.756;2022-11-15T18:06:32;13.60;99.90
53272;DHT22;39160;48.580;7.756;2022-11-15T18:11:29;13.70;99.90
53272;DHT22;39160;48.580;7.756;2022-11-15T18:16:22;13.70;99.90
53272;DHT22;39160;48.580;7.756;2022-11-15T18:21:21;13.60;99.90
53272;DHT22;39160;48.580;7.756;2022-11-15T18:26:13;13.60;99.90
53272;DHT22;39160;48.580;7.756;2022-11-15T18:31:15;13.50;99.90
53272;DHT22;39160;48.580;7.756;2022-11-15T18:36:08;13.50;99.90
53272;DHT22;39160;48.580;7.756;2022-11-15T18:41:08;13.50;99.90
53272;DHT22;39160;48.580;7.756;2022-11-15T18:46:10;13.50;99.90
53272;DHT22;39160;48.580;7.756;2022-11-15T18:51:08;13.40;99.90
53272;DHT22;39160;48.580;7.756;2022-11-15T19:01:07;13.30;99.90
53272;DHT22;39160;48.580;7.756;2022-11-15T19:06:10;13.40;99.90
53272;DHT22;39160;48.580;7.756;2022-11-15T19:11:13;13.40;99.90
53272;DHT22;39160;48.580;7.756;2022-11-15T19:16:05;13.30;99.90
53272;DHT22;39160;48.580;7.756;2022-11-15T19:20:56;13.30;99.90
53272;DHT22;39160;48.580;7.756;2022-11-15T19:25:58;13.20;99.90
53272;DHT22;39160;48.580;7.756;2022-11-15T19:30:49;13.20;99.90
53272;DHT22;39160;48.580;7.756;2022-11-15T19:35:39;13.10;99.90
53272;DHT22;39160;48.580;7.756;2022-11-15T19:40:32;13.20;99.90
53272;DHT22;39160;48.580;7.756;2022-11-15T19:45:23;13.20;99.90
53272;DHT22;39160;48.580;7.756;2022-11-15T19:50:13;13.20;99.90
53272;DHT22;39160;48.580;7.756;2022-11-15T19:55:04;13.20;99.90
53272;DHT22;39160;48.580;7.756;2022-11-15T19:59:55;13.20;99.90
53272;DHT22;39160;48.580;7.756;2022-11-15T20:04:46;13.20;99.90
53272;DHT22;39160;48.580;7.756;2022-11-15T20:09:36;13.10;99.90
53272;DHT22;39160;48.580;7.756;2022-11-15T20:14:27;13.10;99.90
53272;DHT22;39160;48.580;7.756;2022-11-15T20:19:19;13.10;99.90
53272;DHT22;39160;48.580;7.756;2022-11-15T20:24:11;13.10;99.90
53272;DHT22;39160;48.580;7.756;2022-11-15T20:29:02;13.10;99.90
53272;DHT22;39160;48.580;7.756;2022-11-15T20:33:53;13.00;99.90
53272;DHT22;39160;48.580;7.756;2022-11-15T20:38:44;13.00;99.90
53272;DHT22;39160;48.580;7.756;2022-11-15T20:43:34;13.00;99.90
53272;DHT22;39160;48.580;7.756;2022-11-15T20:48:25;13.00;99.90
53272;DHT22;39160;48.580;7.756;2022-11-15T20:53:18;13.00;99.90
53272;DHT22;39160;48.580;7.756;2022-11-15T20:58:10;13.00;99.90
53272;DHT22;39160;48.580;7.756;2022-11-15T21:03:00;13.00;99.90
53272;DHT22;39160;48.580;7.756;2022-11-15T21:07:55;12.90;99.90
53272;DHT22;39160;48.580;7.756;2022-11-15T21:12:46;12.90;99.90
53272;DHT22;39160;48.580;7.756;2022-11-15T21:17:37;12.80;99.90
53272;DHT22;39160;48.580;7.756;2022-11-15T21:22:27;12.70;99.90
53272;DHT22;39160;48.580;7.756;2022-11-15T21:27:18;12.70;99.90
53272;DHT22;39160;48.580;7.756;2022-11-15T21:32:10;12.60;99.90
53272;DHT22;39160;48.580;7.756;2022-11-15T21:37:01;12.70;99.90
53272;DHT22;39160;48.580;7.756;2022-11-15T21:41:52;12.60;99.90
53272;DHT22;39160;48.580;7.756;2022-11-15T21:46:42;12.60;99.90
53272;DHT22;39160;48.580;7.756;2022-11-15T21:51:33;12.50;99.90
53272;DHT22;39160;48.580;7.756;2022-11-15T21:56:25;12.40;99.90
53272;DHT22;39160;48.580;7.756;2022-11-15T22:01:16;12.40;99.90
53272;DHT22;39160;48.580;7.756;2022-11-15T22:06:26;12.50;99.90
53272;DHT22;39160;48.580;7.756;2022-11-15T22:11:16;12.40;99.90
53272;DHT22;39160;48.580;7.756;2022-11-15T22:16:07;12.40;99.90
53272;DHT22;39160;48.580;7.756;2022-11-15T22:21:01;12.30;99.90
53272;DHT22;39160;48.580;7.756;2022-11-15T22:25:52;12.30;99.90
53272;DHT22;39160;48.580;7.756;2022-11-15T22:30:44;12.20;99.90
53272;DHT22;39160;48.580;7.756;2022-11-15T22:35:35;12.20;99.90
53272;DHT22;39160;48.580;7.756;2022-11-15T22:40:26;12.20;99.90
53272;DHT22;39160;48.580;7.756;2022-11-15T22:45:16;12.20;99.90
53272;DHT22;39160;48.580;7.756;2022-11-15T22:50:07;12.20;99.90
53272;DHT22;39160;48.580;7.756;2022-11-15T22:54:58;12.20;99.90
53272;DHT22;39160;48.580;7.756;2022-11-15T22:59:49;12.30;99.90
53272;DHT22;39160;48.580;7.756;2022-11-15T23:04:39;12.30;99.90
53272;DHT22;39160;48.580;7.756;2022-11-15T23:09:30;12.20;99.90
53272;DHT22;39160;48.580;7.756;2022-11-15T23:14:20;12.20;99.90
53272;DHT22;39160;48.580;7.756;2022-11-15T23:19:12;12.10;99.90
53272;DHT22;39160;48.580;7.756;2022-11-15T23:24:04;12.00;99.90
53272;DHT22;39160;48.580;7.756;2022-11-15T23:28:55;12.00;99.90
53272;DHT22;39160;48.580;7.756;2022-11-15T23:33:45;12.10;99.90
53272;DHT22;39160;48.580;7.756;2022-11-15T23:38:48;12.00;99.90
53272;DHT22;39160;48.580;7.756;2022-11-15T23:43:39;12.00;99.90
53272;DHT22;39160;48.580;7.756;2022-11-15T23:48:29;12.10;99.90
53272;DHT22;39160;48.580;7.756;2022-11-15T23:53:20;12.10;99.90
53272;DHT22;39160;48.580;7.756;2022-11-15T23:58:11;12.10;99.90
